createdAt,value
2024-03-12T00:00:16.721Z,3.77
2024-03-12T00:01:17.319Z,3.74
2024-03-12T00:02:17.038Z,3.75
2024-03-12T00:03:16.605Z,3.74
2024-03-12T00:04:17.157Z,3.67
2024-03-12T00:05:16.750Z,3.62
2024-03-12T00:06:16.333Z,3.67
2024-03-12T00:07:16.916Z,3.62
2024-03-12T00:08:16.496Z,3.61
2024-03-12T00:09:17.078Z,3.72
2024-03-12T00:10:16.871Z,3.71
2024-03-12T00:11:16.616Z,3.77
2024-03-12T00:12:17.227Z,3.77
2024-03-12T00:13:16.791Z,3.77
2024-03-12T00:14:16.398Z,3.71
2024-03-12T00:15:16.990Z,3.71
2024-03-12T00:16:16.567Z,3.77
2024-03-12T00:17:17.180Z,3.79
2024-03-12T00:18:16.736Z,3.79
2024-03-12T00:19:17.340Z,3.78
2024-03-12T00:20:16.926Z,3.79
2024-03-12T00:21:16.486Z,3.81
2024-03-12T00:22:17.067Z,3.68
2024-03-12T00:23:16.605Z,3.61
2024-03-12T00:24:17.152Z,3.72
2024-03-12T00:25:16.694Z,3.51
2024-03-12T00:26:17.295Z,3.40
2024-03-12T00:27:16.866Z,3.34
2024-03-12T00:28:16.438Z,3.24
2024-03-12T00:29:17.021Z,3.22
2024-03-12T00:30:16.583Z,3.22
2024-03-12T00:31:17.273Z,3.12
2024-03-12T00:32:16.808Z,3.13
2024-03-12T00:33:16.384Z,3.09
2024-03-12T00:34:16.977Z,3.12
2024-03-12T00:35:16.582Z,3.20
2024-03-12T00:36:17.193Z,3.34
2024-03-12T00:37:16.750Z,3.40
2024-03-12T00:38:17.299Z,3.49
2024-03-12T00:39:16.882Z,3.50
2024-03-12T00:40:16.536Z,3.65
2024-03-12T00:41:17.234Z,3.75
2024-03-12T00:42:16.788Z,3.64
2024-03-12T00:43:16.323Z,3.61
2024-03-12T00:44:16.991Z,3.54
2024-03-12T00:45:16.610Z,3.51
2024-03-12T00:46:17.183Z,3.68
2024-03-12T00:47:16.788Z,3.65
2024-03-12T00:48:16.377Z,3.58
2024-03-12T00:49:16.972Z,3.41
2024-03-12T00:50:16.516Z,3.34
2024-03-12T00:51:17.085Z,3.28
2024-03-12T00:52:16.643Z,3.31
2024-03-12T00:53:17.240Z,3.40
2024-03-12T00:54:16.787Z,3.36
2024-03-12T00:55:16.356Z,3.28
2024-03-12T00:56:17.264Z,3.23
2024-03-12T00:57:16.840Z,3.26
2024-03-12T00:58:16.400Z,3.37
2024-03-12T00:59:16.970Z,3.24
2024-03-12T01:00:16.561Z,3.19
2024-03-12T01:01:17.217Z,3.15
2024-03-12T01:02:16.930Z,3.13
2024-03-12T01:03:16.470Z,3.15
2024-03-12T01:04:17.054Z,3.15
2024-03-12T01:05:16.654Z,3.16
2024-03-12T01:06:17.189Z,3.27
2024-03-12T01:07:16.777Z,3.24
2024-03-12T01:08:16.354Z,3.19
2024-03-12T01:09:16.897Z,3.15
2024-03-12T01:10:16.564Z,3.10
2024-03-12T01:11:17.246Z,3.05
2024-03-12T01:12:16.949Z,2.98
2024-03-12T01:13:16.542Z,3.00
2024-03-12T01:14:17.169Z,3.02
2024-03-12T01:15:16.828Z,3.00
2024-03-12T01:16:16.417Z,2.94
2024-03-12T01:17:17.064Z,2.92
2024-03-12T01:18:16.655Z,2.95
2024-03-12T01:19:16.393Z,2.78
2024-03-12T01:20:16.938Z,2.65
2024-03-12T01:21:16.489Z,2.59
2024-03-12T01:22:17.022Z,2.64
2024-03-12T01:23:16.571Z,2.65
2024-03-12T01:24:17.157Z,2.71
2024-03-12T01:25:16.389Z,2.75
2024-03-12T01:26:16.961Z,2.75
2024-03-12T01:27:16.506Z,2.75
2024-03-12T01:28:17.105Z,2.75
2024-03-12T01:29:16.780Z,2.79
2024-03-12T01:30:16.326Z,2.78
2024-03-12T01:31:16.946Z,2.74
2024-03-12T01:32:16.568Z,2.75
2024-03-12T01:33:17.132Z,2.75
2024-03-12T01:34:16.695Z,2.75
2024-03-12T01:35:17.255Z,2.77
2024-03-12T01:36:16.814Z,2.70
2024-03-12T01:37:16.360Z,2.75
2024-03-12T01:38:16.934Z,2.72
2024-03-12T01:39:16.497Z,2.64
2024-03-12T01:40:17.073Z,2.63
2024-03-12T01:41:16.713Z,2.61
2024-03-12T01:42:17.265Z,2.53
2024-03-12T01:43:16.834Z,2.53
2024-03-12T01:44:16.485Z,2.51
2024-03-12T01:45:17.049Z,2.49
2024-03-12T01:46:16.639Z,2.53
2024-03-12T01:47:17.285Z,2.46
2024-03-12T01:48:16.846Z,2.39
2024-03-12T01:49:16.487Z,2.36
2024-03-12T01:50:17.034Z,2.39
2024-03-12T01:51:16.613Z,2.40
2024-03-12T01:52:17.163Z,2.42
2024-03-12T01:53:16.728Z,2.44
2024-03-12T01:54:17.310Z,2.50
2024-03-12T01:55:16.869Z,2.61
2024-03-12T01:56:16.433Z,2.60
2024-03-12T01:57:17.038Z,2.51
2024-03-12T01:58:16.622Z,2.49
2024-03-12T01:59:16.409Z,2.44
2024-03-12T02:00:16.966Z,2.47
2024-03-12T02:01:16.652Z,2.42
2024-03-12T02:02:16.554Z,2.34
2024-03-12T02:03:17.129Z,2.47
2024-03-12T02:04:16.713Z,2.46
2024-03-12T02:05:17.254Z,2.49
2024-03-12T02:06:16.801Z,2.47
2024-03-12T02:07:16.359Z,2.56
2024-03-12T02:08:16.925Z,2.54
2024-03-12T02:09:16.511Z,2.54
2024-03-12T02:10:17.044Z,2.56
2024-03-12T02:11:16.613Z,2.50
2024-03-12T02:12:17.233Z,2.47
2024-03-12T02:13:16.886Z,2.50
2024-03-12T02:14:16.574Z,2.49
2024-03-12T02:15:17.255Z,2.44
2024-03-12T02:16:16.812Z,2.56
2024-03-12T02:17:16.475Z,2.39
2024-03-12T02:18:17.057Z,2.36
2024-03-12T02:19:16.693Z,2.42
2024-03-12T02:20:17.238Z,2.36
2024-03-12T02:21:16.814Z,2.25
2024-03-12T02:22:16.376Z,2.15
2024-03-12T02:23:16.961Z,2.12
2024-03-12T02:24:16.519Z,2.15
2024-03-12T02:25:17.078Z,2.10
2024-03-12T02:26:16.656Z,2.09
2024-03-12T02:27:17.234Z,2.06
2024-03-12T02:28:16.809Z,2.05
2024-03-12T02:29:16.441Z,2.01
2024-03-12T02:30:17.008Z,1.99
2024-03-12T02:31:16.731Z,1.98
2024-03-12T02:32:16.529Z,2.01
2024-03-12T02:33:17.100Z,2.04
2024-03-12T02:34:16.812Z,2.06
2024-03-12T02:35:16.456Z,2.05
2024-03-12T02:36:16.714Z,2.08
2024-03-12T02:37:17.285Z,2.13
2024-03-12T02:38:16.848Z,2.15
2024-03-12T02:39:16.399Z,2.15
2024-03-12T02:40:17.623Z,2.20
2024-03-12T02:41:16.501Z,2.20
2024-03-12T02:42:17.041Z,2.17
2024-03-12T02:43:16.606Z,2.15
2024-03-12T02:44:17.184Z,2.09
2024-03-12T02:45:17.695Z,2.06
2024-03-12T02:46:16.962Z,2.08
2024-03-12T02:47:16.523Z,2.06
2024-03-12T02:48:17.184Z,2.04
2024-03-12T02:49:16.843Z,2.01
2024-03-12T02:50:16.531Z,1.94
2024-03-12T02:51:17.143Z,1.91
2024-03-12T02:52:16.709Z,1.91
2024-03-12T02:53:17.258Z,1.94
2024-03-12T02:54:16.804Z,1.95
2024-03-12T02:55:16.357Z,1.95
2024-03-12T02:56:17.178Z,1.92
2024-03-12T02:57:16.723Z,1.97
2024-03-12T02:58:17.322Z,2.02
2024-03-12T02:59:16.880Z,2.05
2024-03-12T03:00:16.660Z,2.04
2024-03-12T03:01:16.443Z,1.99
2024-03-12T03:02:17.297Z,1.97
2024-03-12T03:03:16.869Z,1.95
2024-03-12T03:04:16.449Z,1.95
2024-03-12T03:05:17.012Z,1.95
2024-03-12T03:06:16.543Z,1.94
2024-03-12T03:07:17.102Z,1.94
2024-03-12T03:08:16.661Z,1.92
2024-03-12T03:09:17.271Z,1.92
2024-03-12T03:10:16.863Z,1.91
2024-03-12T03:11:16.520Z,1.92
2024-03-12T03:12:17.130Z,1.91
2024-03-12T03:13:16.722Z,1.92
2024-03-12T03:14:16.370Z,1.92
2024-03-12T03:15:16.974Z,2.02
2024-03-12T03:16:16.921Z,1.88
2024-03-12T03:17:16.505Z,1.84
2024-03-12T03:18:17.258Z,1.84
2024-03-12T03:19:17.075Z,1.81
2024-03-12T03:20:16.872Z,1.73
2024-03-12T03:21:16.708Z,1.74
2024-03-12T03:22:17.253Z,1.66
2024-03-12T03:23:16.828Z,1.52
2024-03-12T03:24:16.414Z,1.47
2024-03-12T03:25:17.018Z,1.46
2024-03-12T03:26:16.719Z,1.38
2024-03-12T03:27:17.320Z,1.36
2024-03-12T03:28:16.899Z,1.33
2024-03-12T03:29:16.459Z,1.36
2024-03-12T03:30:17.059Z,1.35
2024-03-12T03:31:16.638Z,1.33
2024-03-12T03:32:17.279Z,1.38
2024-03-12T03:33:16.886Z,1.40
2024-03-12T03:34:16.591Z,1.50
2024-03-12T03:35:17.198Z,1.67
2024-03-12T03:36:16.789Z,1.64
2024-03-12T03:37:16.391Z,1.71
2024-03-12T03:38:16.976Z,1.71
2024-03-12T03:39:16.534Z,1.66
2024-03-12T03:40:17.188Z,1.60
2024-03-12T03:41:16.982Z,1.56
2024-03-12T03:42:16.555Z,1.53
2024-03-12T03:43:17.170Z,1.45
2024-03-12T03:44:16.819Z,1.43
2024-03-12T03:45:16.359Z,1.42
2024-03-12T03:46:16.900Z,1.50
2024-03-12T03:47:16.464Z,1.47
2024-03-12T03:48:17.030Z,1.47
2024-03-12T03:49:16.653Z,1.40
2024-03-12T03:50:16.520Z,1.40
2024-03-12T03:51:17.097Z,1.40
2024-03-12T03:52:16.675Z,1.42
2024-03-12T03:53:17.293Z,1.36
2024-03-12T03:54:16.841Z,1.32
2024-03-12T03:55:16.484Z,1.29
2024-03-12T03:56:17.393Z,1.28
2024-03-12T03:57:16.966Z,1.26
2024-03-12T03:58:16.528Z,1.36
2024-03-12T03:59:17.199Z,1.33
2024-03-12T04:00:16.938Z,1.26
2024-03-12T04:01:16.949Z,1.36
2024-03-12T04:02:16.427Z,1.42
2024-03-12T04:03:16.977Z,1.35
2024-03-12T04:04:16.674Z,1.32
2024-03-12T04:05:16.381Z,1.28
2024-03-12T04:06:16.952Z,1.24
2024-03-12T04:07:16.537Z,1.26
2024-03-12T04:08:17.258Z,1.28
2024-03-12T04:09:16.826Z,1.22
2024-03-12T04:10:16.484Z,1.16
2024-03-12T04:11:17.208Z,1.14
2024-03-12T04:12:16.868Z,1.26
2024-03-12T04:13:16.422Z,1.19
2024-03-12T04:14:17.089Z,1.14
2024-03-12T04:15:16.639Z,1.09
2024-03-12T04:16:17.239Z,1.15
2024-03-12T04:17:16.883Z,1.15
2024-03-12T04:18:16.521Z,1.16
2024-03-12T04:19:17.256Z,1.05
2024-03-12T04:20:16.978Z,1.15
2024-03-12T04:21:16.529Z,1.15
2024-03-12T04:22:17.108Z,1.05
2024-03-12T04:23:16.799Z,0.92
2024-03-12T04:24:16.372Z,0.92
2024-03-12T04:25:17.438Z,0.94
2024-03-12T04:26:16.351Z,0.95
2024-03-12T04:27:16.985Z,0.92
2024-03-12T04:28:16.560Z,0.90
2024-03-12T04:29:17.263Z,0.92
2024-03-12T04:30:16.847Z,0.92
2024-03-12T04:31:16.428Z,0.95
2024-03-12T04:32:17.056Z,0.97
2024-03-12T04:33:16.643Z,0.92
2024-03-12T04:34:17.235Z,0.90
2024-03-12T04:35:16.859Z,0.90
2024-03-12T04:36:16.487Z,0.90
2024-03-12T04:37:17.100Z,0.91
2024-03-12T04:38:17.348Z,0.91
2024-03-12T04:39:17.221Z,0.91
2024-03-12T04:40:16.849Z,0.94
2024-03-12T04:41:16.716Z,0.92
2024-03-12T04:42:17.302Z,0.97
2024-03-12T04:43:16.860Z,0.92
2024-03-12T04:44:16.466Z,0.83
2024-03-12T04:45:17.025Z,0.79
2024-03-12T04:46:16.662Z,0.87
2024-03-12T04:47:16.397Z,0.85
2024-03-12T04:48:16.991Z,0.83
2024-03-12T04:49:16.728Z,0.80
2024-03-12T04:50:16.416Z,0.79
2024-03-12T04:51:16.971Z,0.85
2024-03-12T04:52:16.876Z,0.85
2024-03-12T04:53:16.715Z,0.88
2024-03-12T04:54:17.107Z,0.92
2024-03-12T04:55:16.672Z,0.90
2024-03-12T04:56:17.325Z,0.88
2024-03-12T04:57:16.871Z,0.90
2024-03-12T04:58:16.472Z,0.90
2024-03-12T04:59:17.228Z,0.88
2024-03-12T05:00:17.229Z,0.91
2024-03-12T05:01:16.959Z,0.88
2024-03-12T05:02:16.659Z,0.85
2024-03-12T05:03:17.190Z,0.85
2024-03-12T05:05:16.763Z,0.85
2024-03-12T05:06:16.335Z,0.85
2024-03-12T05:07:16.920Z,0.84
2024-03-12T05:08:16.580Z,0.83
2024-03-12T05:09:17.121Z,0.83
2024-03-12T05:10:16.863Z,0.73
2024-03-12T05:11:16.844Z,0.70
2024-03-12T05:12:16.493Z,0.69
2024-03-12T05:13:17.117Z,0.63
2024-03-12T05:14:16.723Z,0.60
2024-03-12T05:15:17.295Z,0.62
2024-03-12T05:16:16.888Z,0.67
2024-03-12T05:17:16.551Z,0.67
2024-03-12T05:18:17.142Z,0.69
2024-03-12T05:19:16.735Z,0.74
2024-03-12T05:20:16.376Z,0.79
2024-03-12T05:21:16.964Z,0.80
2024-03-12T05:22:16.586Z,0.76
2024-03-12T05:23:17.258Z,0.81
2024-03-12T05:24:16.849Z,0.83
2024-03-12T05:25:16.431Z,0.91
2024-03-12T05:26:17.118Z,0.90
2024-03-12T05:27:16.727Z,0.85
2024-03-12T05:28:17.298Z,0.84
2024-03-12T05:29:16.886Z,0.84
2024-03-12T05:30:16.665Z,0.80
2024-03-12T05:31:17.339Z,0.83
2024-03-12T05:32:16.994Z,0.83
2024-03-12T05:33:16.816Z,0.84
2024-03-12T05:34:16.836Z,0.87
2024-03-12T05:35:16.624Z,0.84
2024-03-12T05:36:17.179Z,0.87
2024-03-12T05:37:16.782Z,0.88
2024-03-12T05:38:16.471Z,0.94
2024-03-12T05:39:17.036Z,0.94
2024-03-12T05:40:16.662Z,0.95
2024-03-12T05:41:16.554Z,0.94
2024-03-12T05:42:17.164Z,0.97
2024-03-12T05:43:16.737Z,0.92
2024-03-12T05:44:16.363Z,0.94
2024-03-12T05:45:16.920Z,0.91
2024-03-12T05:46:16.591Z,0.90
2024-03-12T05:47:16.538Z,0.87
2024-03-12T05:48:17.106Z,0.87
2024-03-12T05:49:16.726Z,0.87
2024-03-12T05:50:16.555Z,0.90
2024-03-12T05:51:17.107Z,0.85
2024-03-12T05:52:16.712Z,0.87
2024-03-12T05:53:16.348Z,0.90
2024-03-12T05:54:16.936Z,0.97
2024-03-12T05:55:16.732Z,0.95
2024-03-12T05:56:18.276Z,0.97
2024-03-12T05:57:17.316Z,1.02
2024-03-12T05:58:16.930Z,1.33
2024-03-12T05:59:16.570Z,1.31
2024-03-12T06:00:17.168Z,1.29
2024-03-12T06:01:16.952Z,1.28
2024-03-12T06:02:17.065Z,1.29
2024-03-12T06:03:16.740Z,1.31
2024-03-12T06:04:17.324Z,1.33
2024-03-12T06:05:16.997Z,1.33
2024-03-12T06:06:16.609Z,1.35
2024-03-12T06:07:19.893Z,1.38
2024-03-12T06:08:16.996Z,1.43
2024-03-12T06:09:16.540Z,1.39
2024-03-12T06:10:17.174Z,1.42
2024-03-12T06:11:16.906Z,1.45
2024-03-12T06:12:16.525Z,1.50
2024-03-12T06:13:17.077Z,1.56
2024-03-12T06:14:16.711Z,1.64
2024-03-12T06:15:17.283Z,1.75
2024-03-12T06:16:16.888Z,1.75
2024-03-12T06:17:16.537Z,1.67
2024-03-12T06:18:17.118Z,1.64
2024-03-12T06:19:16.680Z,1.66
2024-03-12T06:20:16.324Z,1.71
2024-03-12T06:21:16.888Z,1.63
2024-03-12T06:22:16.594Z,1.63
2024-03-12T06:23:17.219Z,1.64
2024-03-12T06:24:16.780Z,1.66
2024-03-12T06:25:17.373Z,1.88
2024-03-12T06:26:16.603Z,1.85
2024-03-12T06:27:16.959Z,1.70
2024-03-12T06:28:16.496Z,1.49
2024-03-12T06:29:17.233Z,1.40
2024-03-12T06:30:16.816Z,1.26
2024-03-12T06:31:16.420Z,1.11
2024-03-12T06:32:17.235Z,1.21
2024-03-12T06:33:16.811Z,1.52
2024-03-12T06:34:16.626Z,1.61
2024-03-12T06:35:17.302Z,1.81
2024-03-12T06:36:16.927Z,1.84
2024-03-12T06:37:16.548Z,1.81
2024-03-12T06:38:17.438Z,1.92
2024-03-12T06:39:17.078Z,1.98
2024-03-12T06:40:16.627Z,1.92
2024-03-12T06:41:17.242Z,1.89
2024-03-12T06:42:16.797Z,1.91
2024-03-12T06:43:16.387Z,2.05
2024-03-12T06:44:17.046Z,2.08
2024-03-12T06:45:16.609Z,1.91
2024-03-12T06:46:17.231Z,1.84
2024-03-12T06:47:16.910Z,1.80
2024-03-12T06:48:16.503Z,1.97
2024-03-12T06:49:17.212Z,2.06
2024-03-12T06:50:16.851Z,2.15
2024-03-12T06:51:16.431Z,2.33
2024-03-12T06:52:17.056Z,2.37
2024-03-12T06:53:16.670Z,2.53
2024-03-12T06:54:17.272Z,2.44
2024-03-12T06:55:17.308Z,2.47
2024-03-12T06:56:17.284Z,2.56
2024-03-12T06:57:17.121Z,2.77
2024-03-12T06:58:16.701Z,2.88
2024-03-12T06:59:16.322Z,2.89
2024-03-12T07:00:16.932Z,3.07
2024-03-12T07:01:16.710Z,3.07
2024-03-12T07:02:16.725Z,3.10
2024-03-12T07:03:16.338Z,3.10
2024-03-12T07:04:17.212Z,3.19
2024-03-12T07:05:16.865Z,3.27
2024-03-12T07:06:16.549Z,3.31
2024-03-12T07:07:17.118Z,3.34
2024-03-12T07:08:16.571Z,3.37
2024-03-12T07:09:17.144Z,3.53
2024-03-12T07:10:16.728Z,3.30
2024-03-12T07:11:16.366Z,3.22
2024-03-12T07:12:16.945Z,3.20
2024-03-12T07:13:16.554Z,3.24
2024-03-12T07:14:17.187Z,3.37
2024-03-12T07:15:16.813Z,3.55
2024-03-12T07:16:16.418Z,3.50
2024-03-12T07:17:17.155Z,3.55
2024-03-12T07:18:16.804Z,3.61
2024-03-12T07:19:16.454Z,3.67
2024-03-12T07:20:17.113Z,3.60
2024-03-12T07:21:16.711Z,3.72
2024-03-12T07:22:17.273Z,3.78
2024-03-12T07:23:16.974Z,3.85
2024-03-12T07:24:16.564Z,4.03
2024-03-12T07:25:17.177Z,4.06
2024-03-12T07:26:16.833Z,3.96
2024-03-12T07:27:16.487Z,3.85
2024-03-12T07:28:19.198Z,3.95
2024-03-12T07:29:17.170Z,4.03
2024-03-12T07:30:16.739Z,4.20
2024-03-12T07:31:16.376Z,4.31
2024-03-12T07:32:17.074Z,4.38
2024-03-12T07:33:16.671Z,4.51
2024-03-12T07:34:18.506Z,4.48
2024-03-12T07:35:16.354Z,4.54
2024-03-12T07:36:16.908Z,4.51
2024-03-12T07:37:16.524Z,4.72
2024-03-12T07:38:17.226Z,4.72
2024-03-12T07:39:16.855Z,4.79
2024-03-12T07:40:16.552Z,4.87
2024-03-12T07:41:17.232Z,5.00
2024-03-12T07:42:16.776Z,5.15
2024-03-12T07:43:16.372Z,5.23
2024-03-12T07:44:17.070Z,5.31
2024-03-12T07:45:16.618Z,5.30
2024-03-12T07:46:17.228Z,5.34
2024-03-12T07:47:16.880Z,5.39
2024-03-12T07:48:16.505Z,5.27
2024-03-12T07:49:17.305Z,5.31
2024-03-12T07:50:16.947Z,5.41
2024-03-12T07:51:16.505Z,5.43
2024-03-12T07:52:17.185Z,5.42
2024-03-12T07:53:16.837Z,5.51
2024-03-12T07:54:16.419Z,5.61
2024-03-12T07:55:17.074Z,5.62
2024-03-12T07:56:16.735Z,5.68
2024-03-12T07:57:19.456Z,5.77
2024-03-12T07:58:17.073Z,5.83
2024-03-12T07:59:16.834Z,5.83
2024-03-12T08:00:16.673Z,5.65
2024-03-12T08:01:17.323Z,5.76
2024-03-12T08:02:16.931Z,5.80
2024-03-12T08:03:16.530Z,5.73
2024-03-12T08:04:17.113Z,5.77
2024-03-12T08:05:16.796Z,5.93
2024-03-12T08:06:16.379Z,5.97
2024-03-12T08:07:16.953Z,6.12
2024-03-12T08:08:16.608Z,6.21
2024-03-12T08:09:17.175Z,6.14
2024-03-12T08:10:16.764Z,6.21
2024-03-12T08:11:16.528Z,6.11
2024-03-12T08:12:17.736Z,6.10
2024-03-12T08:13:16.706Z,6.05
2024-03-12T08:14:16.414Z,6.03
2024-03-12T08:15:16.969Z,5.98
2024-03-12T08:16:16.554Z,6.01
2024-03-12T08:17:17.176Z,6.15
2024-03-12T08:18:17.650Z,6.22
2024-03-12T08:19:16.665Z,6.31
2024-03-12T08:20:16.486Z,6.36
2024-03-12T08:21:17.051Z,6.46
2024-03-12T08:22:16.630Z,6.48
2024-03-12T08:23:16.364Z,6.56
2024-03-12T08:24:17.012Z,6.61
2024-03-12T08:25:17.935Z,6.69
2024-03-12T08:26:17.222Z,6.72
2024-03-12T08:27:16.786Z,6.88
2024-03-12T08:28:16.381Z,7.01
2024-03-12T08:29:17.050Z,7.02
2024-03-12T08:30:16.630Z,7.05
2024-03-12T08:31:23.372Z,7.15
2024-03-12T08:32:17.405Z,7.08
2024-03-12T08:33:17.090Z,7.07
2024-03-12T08:34:16.820Z,7.16
2024-03-12T08:35:16.927Z,7.18
2024-03-12T08:36:16.504Z,7.18
2024-03-12T08:37:17.096Z,7.12
2024-03-12T08:38:16.744Z,7.25
2024-03-12T08:39:17.288Z,7.22
2024-03-12T08:40:16.884Z,7.35
2024-03-12T08:41:16.480Z,7.32
2024-03-12T08:42:17.040Z,7.28
2024-03-12T08:43:16.618Z,7.30
2024-03-12T08:44:17.295Z,7.21
2024-03-12T08:45:18.010Z,7.14
2024-03-12T08:46:16.391Z,7.15
2024-03-12T08:47:16.985Z,7.18
2024-03-12T08:48:16.554Z,7.29
2024-03-12T08:49:17.147Z,7.33
2024-03-12T08:50:16.766Z,7.39
2024-03-12T08:51:16.381Z,7.50
2024-03-12T08:52:17.006Z,7.50
2024-03-12T08:53:16.873Z,7.39
2024-03-12T08:54:16.455Z,7.45
2024-03-12T08:55:17.056Z,7.50
2024-03-12T08:56:16.904Z,7.51
2024-03-12T08:57:16.500Z,7.47
2024-03-12T08:58:17.104Z,7.57
2024-03-12T08:59:16.807Z,7.61
2024-03-12T09:00:16.571Z,7.71
2024-03-12T09:01:17.554Z,7.68
2024-03-12T09:02:16.476Z,7.68
2024-03-12T09:03:17.190Z,7.78
2024-03-12T09:04:16.848Z,7.76
2024-03-12T09:05:16.525Z,7.76
2024-03-12T09:06:17.074Z,7.81
2024-03-12T09:07:16.648Z,7.85
2024-03-12T09:08:16.396Z,7.83
2024-03-12T09:09:17.156Z,7.84
2024-03-12T09:10:17.068Z,7.90
2024-03-12T09:11:16.817Z,7.76
2024-03-12T09:12:16.501Z,7.68
2024-03-12T09:13:17.051Z,7.71
2024-03-12T09:14:16.658Z,7.66
2024-03-12T09:15:17.233Z,7.68
2024-03-12T09:16:16.896Z,7.73
2024-03-12T09:17:16.573Z,7.73
2024-03-12T09:18:17.128Z,7.80
2024-03-12T09:19:16.701Z,7.78
2024-03-12T09:20:16.401Z,7.80
2024-03-12T09:21:17.171Z,7.92
2024-03-12T09:22:16.776Z,7.91
2024-03-12T09:23:16.500Z,8.00
2024-03-12T09:24:17.031Z,7.83
2024-03-12T09:25:19.189Z,7.83
2024-03-12T09:26:16.435Z,7.94
2024-03-12T09:27:16.979Z,8.02
2024-03-12T09:28:16.586Z,8.12
2024-03-12T09:29:17.167Z,8.25
2024-03-12T09:30:16.736Z,8.33
2024-03-12T09:31:16.352Z,8.36
2024-03-12T09:32:16.943Z,8.43
2024-03-12T09:33:16.511Z,8.50
2024-03-12T09:34:17.264Z,8.53
2024-03-12T09:35:16.933Z,8.51
2024-03-12T09:36:16.482Z,8.57
2024-03-12T09:37:17.168Z,8.54
2024-03-12T09:38:16.928Z,8.56
2024-03-12T09:39:16.503Z,8.53
2024-03-12T09:40:17.112Z,8.35
2024-03-12T09:41:16.956Z,8.29
2024-03-12T09:42:16.514Z,8.29
2024-03-12T09:43:17.096Z,8.25
2024-03-12T09:44:16.715Z,8.26
2024-03-12T09:45:17.306Z,8.28
2024-03-12T09:46:16.949Z,8.39
2024-03-12T09:47:16.605Z,8.43
2024-03-12T09:48:17.197Z,8.47
2024-03-12T09:49:16.760Z,8.47
2024-03-12T09:50:16.405Z,8.53
2024-03-12T09:51:16.961Z,8.53
2024-03-12T09:52:16.564Z,8.39
2024-03-12T09:53:17.180Z,8.30
2024-03-12T09:54:16.730Z,8.22
2024-03-12T09:55:17.082Z,8.26
2024-03-12T09:56:16.341Z,8.37
2024-03-12T09:57:16.992Z,8.46
2024-03-12T09:58:16.624Z,8.47
2024-03-12T09:59:17.264Z,8.48
2024-03-12T10:00:16.848Z,8.44
2024-03-12T10:01:16.617Z,8.47
2024-03-12T10:02:16.537Z,8.41
2024-03-12T10:03:17.158Z,8.37
2024-03-12T10:04:16.763Z,8.43
2024-03-12T10:05:16.472Z,8.43
2024-03-12T10:06:17.032Z,8.46
2024-03-12T10:07:16.608Z,8.46
2024-03-12T10:08:17.265Z,8.40
2024-03-12T10:09:16.866Z,8.29
2024-03-12T10:10:16.504Z,8.26
2024-03-12T10:11:17.245Z,8.26
2024-03-12T10:12:16.911Z,8.30
2024-03-12T10:13:16.729Z,8.36
2024-03-12T10:14:16.561Z,8.43
2024-03-12T10:15:17.104Z,8.40
2024-03-12T10:16:16.694Z,8.41
2024-03-12T10:17:17.329Z,8.44
2024-03-12T10:18:16.914Z,8.43
2024-03-12T10:19:16.758Z,8.47
2024-03-12T10:20:16.743Z,8.36
2024-03-12T10:21:16.724Z,8.33
2024-03-12T10:22:17.357Z,8.30
2024-03-12T10:24:16.662Z,8.37
2024-03-12T10:25:17.364Z,8.41
2024-03-12T10:26:16.996Z,8.48
2024-03-12T10:27:17.172Z,8.46
2024-03-12T10:28:16.853Z,8.41
2024-03-12T10:29:16.490Z,8.37
2024-03-12T10:30:17.045Z,8.36
2024-03-12T10:31:16.789Z,8.36
2024-03-12T10:32:16.434Z,8.35
2024-03-12T10:33:17.038Z,8.36
2024-03-12T10:34:16.817Z,8.37
2024-03-12T10:35:16.433Z,8.44
2024-03-12T10:36:17.019Z,8.51
2024-03-12T10:37:16.617Z,8.60
2024-03-12T10:38:17.251Z,8.61
2024-03-12T10:39:16.806Z,8.64
2024-03-12T10:40:16.457Z,8.65
2024-03-12T10:41:16.327Z,8.63
2024-03-12T10:42:16.977Z,8.72
2024-03-12T10:43:16.561Z,8.75
2024-03-12T10:44:17.182Z,8.74
2024-03-12T10:45:16.729Z,8.69
2024-03-12T10:46:17.439Z,8.67
2024-03-12T10:47:17.389Z,8.56
2024-03-12T10:48:16.997Z,8.57
2024-03-12T10:49:16.756Z,8.69
2024-03-12T10:50:16.516Z,8.76
2024-03-12T10:51:17.102Z,8.81
2024-03-12T10:52:16.777Z,8.81
2024-03-12T10:53:16.528Z,8.85
2024-03-12T10:54:17.072Z,8.88
2024-03-12T10:55:16.669Z,8.91
2024-03-12T10:56:17.365Z,8.88
2024-03-12T10:57:17.013Z,8.91
2024-03-12T10:58:16.601Z,8.96
2024-03-12T10:59:17.342Z,8.92
2024-03-12T11:00:17.191Z,8.84
2024-03-12T11:01:16.815Z,8.87
2024-03-12T11:02:16.704Z,8.95
2024-03-12T11:03:16.320Z,9.05
2024-03-12T11:04:16.932Z,9.08
2024-03-12T11:05:16.671Z,9.01
2024-03-12T11:06:17.236Z,8.90
2024-03-12T11:07:16.919Z,8.87
2024-03-12T11:08:16.631Z,8.95
2024-03-12T11:09:17.195Z,8.96
2024-03-12T11:10:16.746Z,8.98
2024-03-12T11:11:16.507Z,8.96
2024-03-12T11:12:17.138Z,8.96
2024-03-12T11:13:16.748Z,9.02
2024-03-12T11:14:16.474Z,9.03
2024-03-12T11:15:17.048Z,9.01
2024-03-12T11:16:16.662Z,9.08
2024-03-12T11:17:16.531Z,9.05
2024-03-12T11:18:17.093Z,9.12
2024-03-12T11:19:16.868Z,9.10
2024-03-12T11:20:16.649Z,9.22
2024-03-12T11:21:17.235Z,9.30
2024-03-12T11:22:16.887Z,9.37
2024-03-12T11:23:16.594Z,9.48
2024-03-12T11:24:17.195Z,9.51
2024-03-12T11:25:16.815Z,9.44
2024-03-12T11:26:16.597Z,9.54
2024-03-12T11:27:17.227Z,9.57
2024-03-12T11:28:16.793Z,9.58
2024-03-12T11:29:16.459Z,9.76
2024-03-12T11:30:17.043Z,9.78
2024-03-12T11:31:16.617Z,9.78
2024-03-12T11:32:17.315Z,9.95
2024-03-12T11:33:16.860Z,10.06
2024-03-12T11:34:16.438Z,10.08
2024-03-12T11:35:17.050Z,10.13
2024-03-12T11:36:16.622Z,10.12
2024-03-12T11:37:17.215Z,10.24
2024-03-12T11:38:17.464Z,10.23
2024-03-12T11:39:17.143Z,10.30
2024-03-12T11:40:16.724Z,10.23
2024-03-12T11:41:16.327Z,10.05
2024-03-12T11:42:16.917Z,10.19
2024-03-12T11:43:16.517Z,10.30
2024-03-12T11:44:17.203Z,10.30
2024-03-12T11:45:16.775Z,10.27
2024-03-12T11:46:16.416Z,10.24
2024-03-12T11:47:16.462Z,10.19
2024-03-12T11:48:17.009Z,10.12
2024-03-12T11:49:16.616Z,10.26
2024-03-12T11:50:17.202Z,10.28
2024-03-12T11:51:16.770Z,10.31
2024-03-12T11:52:17.406Z,10.24
2024-03-12T11:53:17.017Z,10.20
2024-03-12T11:54:16.587Z,10.09
2024-03-12T11:55:17.166Z,10.27
2024-03-12T11:56:17.007Z,10.48
2024-03-12T11:57:16.776Z,10.51
2024-03-12T11:58:16.355Z,10.54
2024-03-12T11:59:19.829Z,10.61
2024-03-12T12:00:16.835Z,10.62
2024-03-12T12:01:16.421Z,10.64
2024-03-12T12:02:16.544Z,10.62
2024-03-12T12:03:17.112Z,10.61
2024-03-12T12:04:16.958Z,10.57
2024-03-12T12:05:16.698Z,10.36
2024-03-12T12:06:17.233Z,10.34
2024-03-12T12:07:16.843Z,10.41
2024-03-12T12:08:16.605Z,10.54
2024-03-12T12:09:17.143Z,10.68
2024-03-12T12:10:16.813Z,10.55
2024-03-12T12:11:16.653Z,10.51
2024-03-12T12:12:16.336Z,10.60
2024-03-12T12:13:16.923Z,10.55
2024-03-12T12:14:16.645Z,10.57
2024-03-12T12:15:17.228Z,10.57
2024-03-12T12:16:16.814Z,10.55
2024-03-12T12:17:16.471Z,10.61
2024-03-12T12:18:17.059Z,10.55
2024-03-12T12:19:18.863Z,10.57
2024-03-12T12:20:17.066Z,10.62
2024-03-12T12:21:16.631Z,10.54
2024-03-12T12:22:19.345Z,10.41
2024-03-12T12:23:17.058Z,10.48
2024-03-12T12:24:16.644Z,10.49
2024-03-12T12:25:17.469Z,10.54
2024-03-12T12:26:17.436Z,10.60
2024-03-12T12:27:17.097Z,10.74
2024-03-12T12:28:16.725Z,10.45
2024-03-12T12:29:16.433Z,10.31
2024-03-12T12:30:17.070Z,10.34
2024-03-12T12:31:16.643Z,10.36
2024-03-12T12:32:17.280Z,10.44
2024-03-12T12:33:16.832Z,10.52
2024-03-12T12:34:16.475Z,10.43
2024-03-12T12:35:17.234Z,10.48
2024-03-12T12:36:16.856Z,10.57
2024-03-12T12:37:16.491Z,10.65
2024-03-12T12:38:16.332Z,10.62
2024-03-12T12:39:16.896Z,10.51
2024-03-12T12:40:16.704Z,10.60
2024-03-12T12:41:16.718Z,10.67
2024-03-12T12:42:17.287Z,10.70
2024-03-12T12:43:16.895Z,10.57
2024-03-12T12:44:17.380Z,10.65
2024-03-12T12:45:17.034Z,10.78
2024-03-12T12:46:16.652Z,10.81
2024-03-12T12:47:16.376Z,10.45
2024-03-12T12:48:16.977Z,10.37
2024-03-12T12:49:16.681Z,10.38
2024-03-12T12:50:16.371Z,10.34
2024-03-12T12:51:16.921Z,10.26
2024-03-12T12:52:16.538Z,10.24
2024-03-12T12:53:16.471Z,10.16
2024-03-12T12:54:17.280Z,10.06
2024-03-12T12:55:17.060Z,9.96
2024-03-12T12:56:16.800Z,9.92
2024-03-12T12:57:16.403Z,9.95
2024-03-12T12:58:17.018Z,9.99
2024-03-12T12:59:16.751Z,9.98
2024-03-12T13:00:16.480Z,10.03
2024-03-12T13:01:17.472Z,10.05
2024-03-12T13:02:17.275Z,10.09
2024-03-12T13:03:16.839Z,10.17
2024-03-12T13:04:16.485Z,10.27
2024-03-12T13:05:17.221Z,10.34
2024-03-12T13:06:16.994Z,10.44
2024-03-12T13:07:16.840Z,10.47
2024-03-12T13:08:16.540Z,10.44
2024-03-12T13:09:17.115Z,10.41
2024-03-12T13:10:16.767Z,10.41
2024-03-12T13:11:16.595Z,10.47
2024-03-12T13:12:17.254Z,10.51
2024-03-12T13:13:16.987Z,10.47
2024-03-12T13:14:16.687Z,10.58
2024-03-12T13:15:17.240Z,10.68
2024-03-12T13:16:16.987Z,10.81
2024-03-12T13:17:16.838Z,10.51